EDSB Airport Information

Runway Information
Runway 03 Length 9787 ft width 148 ft
Elevation 405 ft Threshold 830 ft Heading 32
Runway 21 Length 9787 ft Width 148 ft
Elevation 404 ft Threshold 830 ft Heading 212
Airport Frequencies
Type AAS Name REIMS INFO Frequency 124.1 MHZ
Type APP Name STRASSBOUR Frequency 119.45 MHZ
Type ATIS Name BADEN ATIS Frequency 121.275 MHZ
Type GND Name BADEN GND Frequency 121.825 MHZ
Type INFO Name LANGEN INF Frequency 128.95 MHZ
Type TWR Name BADEN TWR Frequency 134.1 MHZ
Airport Navaids
Type NDB Name Karlsruhe Baden Baden Frequency 431 KHZ
Type DME Name Karlsruhe Baden Baden Frequency 115800 KHZ
Airport Weather Information & NOTAM
ADDS - METARS form results

(2043 UTC 23 February 2019)
Data provider http://aviationweather.gov/metar/data/
 
METAR text: EDSB 232020Z 03008KT CAVOK 06/M09 Q1036
Conditions at: EDSB (KARLSRUHE/BADEN , DE) observed 2020 UTC 23 February 2019
Temperature: 6.0°C (43°F)
Dewpoint: -9.0°C (16°F) [RH = 33%]
Pressure (altimeter): 30.59 inches Hg (1036.0 mb)
Winds: from the NNE (30 degrees) at 9 MPH (8 knots; 4.1 m/s)
Visibility: 6 or more miles (10+ km)
Ceiling: ceiling and visibility are OK
Clouds: unknown
Weather: no significant weather observed at this time

METAR text: EDSB 231950Z 02009KT CAVOK 06/M09 Q1036
Conditions at: EDSB (KARLSRUHE/BADEN , DE) observed 1950 UTC 23 February 2019
Temperature: 6.0°C (43°F)
Dewpoint: -9.0°C (16°F) [RH = 33%]
Pressure (altimeter): 30.59 inches Hg (1036.0 mb)
Winds: from the NNE (20 degrees) at 10 MPH (9 knots; 4.6 m/s)
Visibility: 6 or more miles (10+ km)
Ceiling: ceiling and visibility are OK
Clouds: unknown
Weather: no significant weather observed at this time

Forecast for: EDSB (KARLSRUHE/BADEN , DE)
Text: TAF EDSB 231700Z 2318/2418 03012KT CAVOK
Forecast period: 1800 UTC 23 February 2019 to 1800 UTC 24 February 2019
Forecast type: FROM: standard forecast or significant change
Winds: from the NNE (30 degrees) at 14 MPH (12 knots; 6.2 m/s)
Visibility: 6 or more miles 10+ km)
Ceiling: unknown
Clouds: missing
Weather: NSW  (no significant weather)
Text: BECMG 2318/2320 03007KT
Forecast period: 1800 UTC 23 February 2019 to 1800 UTC 24 February 2019
Forecast type: BECOMING: Conditions expected to become as follows by 2000 UTC 23 February 2019
Winds: from the NNE (30 degrees) at 8 MPH (7 knots; 3.6 m/s)
Visibility: 6 or more miles 10+ km)
Ceiling: unknown
Clouds: missing
Weather: NSW  (no significant weather)